sensor_id;sensor_type;location;lat;lon;timestamp;temperature;humidity
65692;DHT22;52411;52.716;6.696;2023-01-09T00:00:22;8.10;99.90
65692;DHT22;52411;52.716;6.696;2023-01-09T00:02:48;8.10;99.90
65692;DHT22;52411;52.716;6.696;2023-01-09T00:05:15;8.10;99.90
65692;DHT22;52411;52.716;6.696;2023-01-09T00:07:41;8.10;99.90
65692;DHT22;52411;52.716;6.696;2023-01-09T00:10:07;8.10;99.90
65692;DHT22;52411;52.716;6.696;2023-01-09T00:12:33;8.10;99.90
65692;DHT22;52411;52.716;6.696;2023-01-09T00:14:59;8.10;99.90
65692;DHT22;52411;52.716;6.696;2023-01-09T00:17:25;8.10;99.90
65692;DHT22;52411;52.716;6.696;2023-01-09T00:19:51;8.10;99.90
65692;DHT22;52411;52.716;6.696;2023-01-09T00:22:16;8.10;99.90
65692;DHT22;52411;52.716;6.696;2023-01-09T00:24:42;8.10;99.90
65692;DHT22;52411;52.716;6.696;2023-01-09T00:27:07;8.10;99.90
65692;DHT22;52411;52.716;6.696;2023-01-09T00:29:33;8.20;99.90
65692;DHT22;52411;52.716;6.696;2023-01-09T00:31:59;8.10;99.90
65692;DHT22;52411;52.716;6.696;2023-01-09T00:34:25;8.10;99.90
65692;DHT22;52411;52.716;6.696;2023-01-09T00:36:50;8.10;99.90
65692;DHT22;52411;52.716;6.696;2023-01-09T00:39:21;8.00;99.90
65692;DHT22;52411;52.716;6.696;2023-01-09T00:41:50;8.00;99.90
65692;DHT22;52411;52.716;6.696;2023-01-09T00:44:25;8.00;99.90
65692;DHT22;52411;52.716;6.696;2023-01-09T00:46:56;8.00;99.90
65692;DHT22;52411;52.716;6.696;2023-01-09T00:49:23;8.00;99.90
65692;DHT22;52411;52.716;6.696;2023-01-09T00:51:49;8.00;99.90
65692;DHT22;52411;52.716;6.696;2023-01-09T00:54:16;7.90;99.90
65692;DHT22;52411;52.716;6.696;2023-01-09T00:56:43;7.90;99.90
65692;DHT22;52411;52.716;6.696;2023-01-09T00:59:09;7.80;99.90
65692;DHT22;52411;52.716;6.696;2023-01-09T01:01:34;7.80;99.90
65692;DHT22;52411;52.716;6.696;2023-01-09T01:04:00;7.80;99.90
65692;DHT22;52411;52.716;6.696;2023-01-09T01:06:45;7.80;99.90
65692;DHT22;52411;52.716;6.696;2023-01-09T01:09:30;7.80;99.90
65692;DHT22;52411;52.716;6.696;2023-01-09T01:11:55;7.70;99.90
65692;DHT22;52411;52.716;6.696;2023-01-09T01:14:21;7.70;99.90
65692;DHT22;52411;52.716;6.696;2023-01-09T01:16:47;7.70;99.90
65692;DHT22;52411;52.716;6.696;2023-01-09T01:19:12;7.70;99.90
65692;DHT22;52411;52.716;6.696;2023-01-09T01:21:38;7.60;99.90
65692;DHT22;52411;52.716;6.696;2023-01-09T01:24:04;7.70;99.90
65692;DHT22;52411;52.716;6.696;2023-01-09T01:26:30;7.70;99.90
65692;DHT22;52411;52.716;6.696;2023-01-09T01:28:57;7.70;99.90
65692;DHT22;52411;52.716;6.696;2023-01-09T01:31:23;7.60;99.90
65692;DHT22;52411;52.716;6.696;2023-01-09T01:33:49;7.60;99.90
65692;DHT22;52411;52.716;6.696;2023-01-09T01:36:14;7.60;99.90
65692;DHT22;52411;52.716;6.696;2023-01-09T01:38:41;7.60;99.90
65692;DHT22;52411;52.716;6.696;2023-01-09T01:41:08;7.60;99.90
65692;DHT22;52411;52.716;6.696;2023-01-09T01:43:51;7.60;99.90
65692;DHT22;52411;52.716;6.696;2023-01-09T01:46:17;7.60;99.90
65692;DHT22;52411;52.716;6.696;2023-01-09T01:48:43;7.50;99.90
65692;DHT22;52411;52.716;6.696;2023-01-09T01:51:10;7.50;99.90
65692;DHT22;52411;52.716;6.696;2023-01-09T01:53:41;7.50;99.90
65692;DHT22;52411;52.716;6.696;2023-01-09T01:56:22;7.50;99.90
65692;DHT22;52411;52.716;6.696;2023-01-09T01:59:02;7.50;99.90
65692;DHT22;52411;52.716;6.696;2023-01-09T02:01:30;7.40;99.90
65692;DHT22;52411;52.716;6.696;2023-01-09T02:03:58;7.40;99.90
65692;DHT22;52411;52.716;6.696;2023-01-09T02:06:25;7.30;99.90
65692;DHT22;52411;52.716;6.696;2023-01-09T02:08:51;7.20;99.90
65692;DHT22;52411;52.716;6.696;2023-01-09T02:11:19;7.30;99.90
65692;DHT22;52411;52.716;6.696;2023-01-09T02:13:45;7.20;99.90
65692;DHT22;52411;52.716;6.696;2023-01-09T02:16:40;7.20;99.90
65692;DHT22;52411;52.716;6.696;2023-01-09T02:30:45;7.30;99.90
65692;DHT22;52411;52.716;6.696;2023-01-09T02:38:46;7.20;99.90
65692;DHT22;52411;52.716;6.696;2023-01-09T02:41:25;7.10;99.90
65692;DHT22;52411;52.716;6.696;2023-01-09T02:44:21;7.00;99.90
65692;DHT22;52411;52.716;6.696;2023-01-09T02:46:47;6.90;99.90
65692;DHT22;52411;52.716;6.696;2023-01-09T02:49:14;6.80;99.90
65692;DHT22;52411;52.716;6.696;2023-01-09T02:51:49;6.70;99.90
65692;DHT22;52411;52.716;6.696;2023-01-09T03:03:00;6.40;99.90
65692;DHT22;52411;52.716;6.696;2023-01-09T03:05:52;6.30;99.90
65692;DHT22;52411;52.716;6.696;2023-01-09T03:08:24;6.30;99.90
65692;DHT22;52411;52.716;6.696;2023-01-09T03:13:18;6.20;99.90
65692;DHT22;52411;52.716;6.696;2023-01-09T03:15:47;6.10;99.90
65692;DHT22;52411;52.716;6.696;2023-01-09T03:18:16;6.10;99.90
65692;DHT22;52411;52.716;6.696;2023-01-09T03:20:43;6.10;99.90
65692;DHT22;52411;52.716;6.696;2023-01-09T03:23:10;6.00;99.90
65692;DHT22;52411;52.716;6.696;2023-01-09T03:25:36;6.00;99.90
65692;DHT22;52411;52.716;6.696;2023-01-09T03:28:07;6.00;99.90
65692;DHT22;52411;52.716;6.696;2023-01-09T03:30:35;5.90;99.90
65692;DHT22;52411;52.716;6.696;2023-01-09T03:33:01;5.90;99.90
65692;DHT22;52411;52.716;6.696;2023-01-09T03:35:27;5.90;99.90
65692;DHT22;52411;52.716;6.696;2023-01-09T03:37:53;5.80;99.90
65692;DHT22;52411;52.716;6.696;2023-01-09T03:40:19;5.80;99.90
65692;DHT22;52411;52.716;6.696;2023-01-09T03:42:45;5.70;99.90
65692;DHT22;52411;52.716;6.696;2023-01-09T03:45:11;5.70;99.90
65692;DHT22;52411;52.716;6.696;2023-01-09T03:47:37;5.60;99.90
65692;DHT22;52411;52.716;6.696;2023-01-09T03:50:03;5.50;99.90
65692;DHT22;52411;52.716;6.696;2023-01-09T03:52:29;5.60;99.90
65692;DHT22;52411;52.716;6.696;2023-01-09T03:54:54;5.50;99.90
65692;DHT22;52411;52.716;6.696;2023-01-09T03:57:20;5.60;99.90
65692;DHT22;52411;52.716;6.696;2023-01-09T03:59:45;5.60;99.90
65692;DHT22;52411;52.716;6.696;2023-01-09T04:02:11;5.80;99.90
65692;DHT22;52411;52.716;6.696;2023-01-09T04:04:37;5.80;99.90
65692;DHT22;52411;52.716;6.696;2023-01-09T04:07:02;5.90;99.90
65692;DHT22;52411;52.716;6.696;2023-01-09T04:09:28;5.90;99.90
65692;DHT22;52411;52.716;6.696;2023-01-09T04:11:53;6.00;99.90
65692;DHT22;52411;52.716;6.696;2023-01-09T04:14:19;6.00;99.90
65692;DHT22;52411;52.716;6.696;2023-01-09T04:16:45;5.90;99.90
65692;DHT22;52411;52.716;6.696;2023-01-09T04:19:10;5.80;99.90
65692;DHT22;52411;52.716;6.696;2023-01-09T04:21:36;5.80;99.90
65692;DHT22;52411;52.716;6.696;2023-01-09T04:24:01;5.70;99.90
65692;DHT22;52411;52.716;6.696;2023-01-09T04:26:28;5.60;99.90
65692;DHT22;52411;52.716;6.696;2023-01-09T04:28:53;5.60;99.90
65692;DHT22;52411;52.716;6.696;2023-01-09T04:31:19;5.50;99.90
65692;DHT22;52411;52.716;6.696;2023-01-09T04:33:45;5.50;99.90
65692;DHT22;52411;52.716;6.696;2023-01-09T04:36:11;5.40;99.90
65692;DHT22;52411;52.716;6.696;2023-01-09T04:38:37;5.40;99.90
65692;DHT22;52411;52.716;6.696;2023-01-09T04:41:03;5.40;99.90
65692;DHT22;52411;52.716;6.696;2023-01-09T04:43:28;5.40;99.90
65692;DHT22;52411;52.716;6.696;2023-01-09T04:45:54;5.30;99.90
65692;DHT22;52411;52.716;6.696;2023-01-09T04:48:19;5.40;99.90
65692;DHT22;52411;52.716;6.696;2023-01-09T04:50:45;5.30;99.90
65692;DHT22;52411;52.716;6.696;2023-01-09T04:53:10;5.40;99.90
65692;DHT22;52411;52.716;6.696;2023-01-09T04:55:36;5.50;99.90
65692;DHT22;52411;52.716;6.696;2023-01-09T04:58:02;5.50;99.90
65692;DHT22;52411;52.716;6.696;2023-01-09T05:00:27;5.50;99.90
65692;DHT22;52411;52.716;6.696;2023-01-09T05:02:53;5.50;99.90
65692;DHT22;52411;52.716;6.696;2023-01-09T05:05:19;5.50;99.90
65692;DHT22;52411;52.716;6.696;2023-01-09T05:07:44;5.50;99.90
65692;DHT22;52411;52.716;6.696;2023-01-09T05:10:10;5.50;99.90
65692;DHT22;52411;52.716;6.696;2023-01-09T05:12:36;5.50;99.90
65692;DHT22;52411;52.716;6.696;2023-01-09T05:15:03;5.60;99.90
65692;DHT22;52411;52.716;6.696;2023-01-09T05:17:28;5.50;99.90
65692;DHT22;52411;52.716;6.696;2023-01-09T05:19:54;5.40;99.90
65692;DHT22;52411;52.716;6.696;2023-01-09T05:22:20;5.40;99.90
65692;DHT22;52411;52.716;6.696;2023-01-09T05:24:45;5.30;99.90
65692;DHT22;52411;52.716;6.696;2023-01-09T05:27:11;5.30;99.90
65692;DHT22;52411;52.716;6.696;2023-01-09T05:29:37;5.20;99.90
65692;DHT22;52411;52.716;6.696;2023-01-09T05:32:03;5.20;99.90
65692;DHT22;52411;52.716;6.696;2023-01-09T05:34:28;5.20;99.90
65692;DHT22;52411;52.716;6.696;2023-01-09T05:36:54;5.20;99.90
65692;DHT22;52411;52.716;6.696;2023-01-09T05:39:20;5.20;99.90
65692;DHT22;52411;52.716;6.696;2023-01-09T05:41:45;5.20;99.90
65692;DHT22;52411;52.716;6.696;2023-01-09T05:44:11;5.30;99.90
65692;DHT22;52411;52.716;6.696;2023-01-09T05:46:37;5.30;99.90
65692;DHT22;52411;52.716;6.696;2023-01-09T05:49:02;5.30;99.90
65692;DHT22;52411;52.716;6.696;2023-01-09T05:51:28;5.30;99.90
65692;DHT22;52411;52.716;6.696;2023-01-09T05:53:56;5.30;99.90
65692;DHT22;52411;52.716;6.696;2023-01-09T05:56:22;5.30;99.90
65692;DHT22;52411;52.716;6.696;2023-01-09T05:58:47;5.40;99.90
65692;DHT22;52411;52.716;6.696;2023-01-09T06:01:13;5.40;99.90
65692;DHT22;52411;52.716;6.696;2023-01-09T06:03:39;5.50;99.90
65692;DHT22;52411;52.716;6.696;2023-01-09T06:06:04;5.60;99.90
65692;DHT22;52411;52.716;6.696;2023-01-09T06:08:30;5.60;99.90
65692;DHT22;52411;52.716;6.696;2023-01-09T06:10:56;5.60;99.90
65692;DHT22;52411;52.716;6.696;2023-01-09T06:13:21;5.60;99.90
65692;DHT22;52411;52.716;6.696;2023-01-09T06:15:47;5.60;99.90
65692;DHT22;52411;52.716;6.696;2023-01-09T06:18:13;5.60;99.90
65692;DHT22;52411;52.716;6.696;2023-01-09T06:20:39;5.70;99.90
65692;DHT22;52411;52.716;6.696;2023-01-09T06:23:04;5.70;99.90
65692;DHT22;52411;52.716;6.696;2023-01-09T06:25:30;5.50;99.90
65692;DHT22;52411;52.716;6.696;2023-01-09T06:27:56;5.40;99.90
65692;DHT22;52411;52.716;6.696;2023-01-09T06:30:21;5.40;99.90
65692;DHT22;52411;52.716;6.696;2023-01-09T06:32:48;5.30;99.90
65692;DHT22;52411;52.716;6.696;2023-01-09T06:35:14;5.20;99.90
65692;DHT22;52411;52.716;6.696;2023-01-09T06:37:40;5.10;99.90
65692;DHT22;52411;52.716;6.696;2023-01-09T06:40:05;5.10;99.90
65692;DHT22;52411;52.716;6.696;2023-01-09T06:42:31;5.00;99.90
65692;DHT22;52411;52.716;6.696;2023-01-09T06:44:57;5.00;99.90
65692;DHT22;52411;52.716;6.696;2023-01-09T06:47:22;5.00;99.90
65692;DHT22;52411;52.716;6.696;2023-01-09T06:49:48;5.00;99.90
65692;DHT22;52411;52.716;6.696;2023-01-09T06:52:14;4.90;99.90
65692;DHT22;52411;52.716;6.696;2023-01-09T06:54:40;4.90;99.90
65692;DHT22;52411;52.716;6.696;2023-01-09T06:57:05;4.80;99.90
65692;DHT22;52411;52.716;6.696;2023-01-09T06:59:31;4.80;99.90
65692;DHT22;52411;52.716;6.696;2023-01-09T07:01:57;4.70;99.90
65692;DHT22;52411;52.716;6.696;2023-01-09T07:04:22;4.80;99.90
65692;DHT22;52411;52.716;6.696;2023-01-09T07:06:48;4.80;99.90
65692;DHT22;52411;52.716;6.696;2023-01-09T07:09:14;4.80;99.90
65692;DHT22;52411;52.716;6.696;2023-01-09T07:11:40;4.90;99.90
65692;DHT22;52411;52.716;6.696;2023-01-09T07:14:06;4.90;99.90
65692;DHT22;52411;52.716;6.696;2023-01-09T07:16:32;4.90;99.90
65692;DHT22;52411;52.716;6.696;2023-01-09T07:18:58;5.00;99.90
65692;DHT22;52411;52.716;6.696;2023-01-09T07:21:24;5.10;99.90
65692;DHT22;52411;52.716;6.696;2023-01-09T07:23:50;5.20;99.90
65692;DHT22;52411;52.716;6.696;2023-01-09T07:26:15;5.20;99.90
65692;DHT22;52411;52.716;6.696;2023-01-09T07:28:41;5.30;99.90
65692;DHT22;52411;52.716;6.696;2023-01-09T07:31:07;5.40;99.90
65692;DHT22;52411;52.716;6.696;2023-01-09T07:33:33;5.40;99.90
65692;DHT22;52411;52.716;6.696;2023-01-09T07:35:59;5.50;99.90
65692;DHT22;52411;52.716;6.696;2023-01-09T07:38:25;5.50;99.90
65692;DHT22;52411;52.716;6.696;2023-01-09T07:40:50;5.60;99.90
65692;DHT22;52411;52.716;6.696;2023-01-09T07:43:16;5.60;99.90
65692;DHT22;52411;52.716;6.696;2023-01-09T07:45:42;5.70;99.90
65692;DHT22;52411;52.716;6.696;2023-01-09T07:48:07;5.70;99.90
65692;DHT22;52411;52.716;6.696;2023-01-09T07:50:33;5.70;99.90
65692;DHT22;52411;52.716;6.696;2023-01-09T07:52:58;5.80;99.90
65692;DHT22;52411;52.716;6.696;2023-01-09T07:55:24;5.80;99.90
65692;DHT22;52411;52.716;6.696;2023-01-09T07:57:50;5.80;99.90
65692;DHT22;52411;52.716;6.696;2023-01-09T08:00:17;5.90;99.90
65692;DHT22;52411;52.716;6.696;2023-01-09T08:02:43;5.90;99.90
65692;DHT22;52411;52.716;6.696;2023-01-09T08:05:08;6.00;99.90
65692;DHT22;52411;52.716;6.696;2023-01-09T08:07:39;6.00;99.90
65692;DHT22;52411;52.716;6.696;2023-01-09T08:10:05;6.00;99.90
65692;DHT22;52411;52.716;6.696;2023-01-09T08:12:30;6.00;99.90
65692;DHT22;52411;52.716;6.696;2023-01-09T08:14:56;6.10;99.90
65692;DHT22;52411;52.716;6.696;2023-01-09T08:17:22;6.10;99.90
65692;DHT22;52411;52.716;6.696;2023-01-09T08:19:47;6.10;99.90
65692;DHT22;52411;52.716;6.696;2023-01-09T08:22:13;6.20;99.90
65692;DHT22;52411;52.716;6.696;2023-01-09T08:24:38;6.20;99.90
65692;DHT22;52411;52.716;6.696;2023-01-09T08:27:04;6.20;99.90
65692;DHT22;52411;52.716;6.696;2023-01-09T08:29:29;6.20;99.90
65692;DHT22;52411;52.716;6.696;2023-01-09T08:31:55;6.30;99.90
65692;DHT22;52411;52.716;6.696;2023-01-09T08:34:21;6.30;99.90
65692;DHT22;52411;52.716;6.696;2023-01-09T08:36:47;6.30;99.90
65692;DHT22;52411;52.716;6.696;2023-01-09T08:39:13;6.40;99.90
65692;DHT22;52411;52.716;6.696;2023-01-09T08:41:39;6.40;99.90
65692;DHT22;52411;52.716;6.696;2023-01-09T08:44:23;6.40;99.90
65692;DHT22;52411;52.716;6.696;2023-01-09T08:47:08;6.50;99.90
65692;DHT22;52411;52.716;6.696;2023-01-09T08:49:35;6.50;99.90
65692;DHT22;52411;52.716;6.696;2023-01-09T08:52:02;6.50;99.90
65692;DHT22;52411;52.716;6.696;2023-01-09T08:54:28;6.60;99.90
65692;DHT22;52411;52.716;6.696;2023-01-09T08:56:54;6.60;99.90
65692;DHT22;52411;52.716;6.696;2023-01-09T08:59:19;6.60;99.90
65692;DHT22;52411;52.716;6.696;2023-01-09T09:01:45;6.60;99.90
65692;DHT22;52411;52.716;6.696;2023-01-09T09:04:11;6.70;99.90
65692;DHT22;52411;52.716;6.696;2023-01-09T09:06:36;6.70;99.90
65692;DHT22;52411;52.716;6.696;2023-01-09T09:09:02;6.70;99.90
65692;DHT22;52411;52.716;6.696;2023-01-09T09:11:31;6.70;99.90
65692;DHT22;52411;52.716;6.696;2023-01-09T09:13:58;6.80;99.90
65692;DHT22;52411;52.716;6.696;2023-01-09T09:16:24;6.90;99.90
65692;DHT22;52411;52.716;6.696;2023-01-09T09:18:50;7.00;99.90
65692;DHT22;52411;52.716;6.696;2023-01-09T09:21:16;7.10;99.90
65692;DHT22;52411;52.716;6.696;2023-01-09T09:23:41;7.10;99.90
65692;DHT22;52411;52.716;6.696;2023-01-09T09:26:09;7.10;99.90
65692;DHT22;52411;52.716;6.696;2023-01-09T09:28:34;7.10;99.90
65692;DHT22;52411;52.716;6.696;2023-01-09T09:31:03;7.20;99.90
65692;DHT22;52411;52.716;6.696;2023-01-09T09:33:29;7.20;99.90
65692;DHT22;52411;52.716;6.696;2023-01-09T09:35:56;7.20;99.90
65692;DHT22;52411;52.716;6.696;2023-01-09T09:38:22;7.20;99.90
65692;DHT22;52411;52.716;6.696;2023-01-09T09:42:03;7.30;99.90
65692;DHT22;52411;52.716;6.696;2023-01-09T09:44:35;7.30;99.90
65692;DHT22;52411;52.716;6.696;2023-01-09T09:53:15;7.30;99.90
65692;DHT22;52411;52.716;6.696;2023-01-09T09:55:44;7.30;99.90
65692;DHT22;52411;52.716;6.696;2023-01-09T10:00:39;7.30;99.90
65692;DHT22;52411;52.716;6.696;2023-01-09T10:06:09;7.30;99.90
65692;DHT22;52411;52.716;6.696;2023-01-09T10:11:31;7.40;99.90
65692;DHT22;52411;52.716;6.696;2023-01-09T10:13:58;7.40;99.90
65692;DHT22;52411;52.716;6.696;2023-01-09T10:19:26;7.40;99.90
65692;DHT22;52411;52.716;6.696;2023-01-09T10:25:11;7.40;99.90
65692;DHT22;52411;52.716;6.696;2023-01-09T10:30:41;7.40;99.90
65692;DHT22;52411;52.716;6.696;2023-01-09T10:33:21;7.30;99.90
65692;DHT22;52411;52.716;6.696;2023-01-09T10:38:30;7.30;99.90
65692;DHT22;52411;52.716;6.696;2023-01-09T10:41:19;7.30;99.90
65692;DHT22;52411;52.716;6.696;2023-01-09T10:46:37;7.20;99.90
65692;DHT22;52411;52.716;6.696;2023-01-09T10:49:11;7.20;99.90
65692;DHT22;52411;52.716;6.696;2023-01-09T10:51:46;7.20;99.90
65692;DHT22;52411;52.716;6.696;2023-01-09T10:54:15;7.20;99.90
65692;DHT22;52411;52.716;6.696;2023-01-09T10:56:56;7.10;99.90
65692;DHT22;52411;52.716;6.696;2023-01-09T10:59:23;7.10;99.90
65692;DHT22;52411;52.716;6.696;2023-01-09T11:01:49;7.00;99.90
65692;DHT22;52411;52.716;6.696;2023-01-09T11:04:35;7.00;99.90
65692;DHT22;52411;52.716;6.696;2023-01-09T11:09:57;7.00;99.90
65692;DHT22;52411;52.716;6.696;2023-01-09T11:12:31;7.00;99.90
65692;DHT22;52411;52.716;6.696;2023-01-09T11:17:49;7.10;99.90
65692;DHT22;52411;52.716;6.696;2023-01-09T11:22:49;7.10;99.90
65692;DHT22;52411;52.716;6.696;2023-01-09T11:25:18;7.10;99.90
65692;DHT22;52411;52.716;6.696;2023-01-09T11:30:34;7.20;99.90
65692;DHT22;52411;52.716;6.696;2023-01-09T11:33:13;7.20;99.90
65692;DHT22;52411;52.716;6.696;2023-01-09T11:38:19;7.20;99.90
65692;DHT22;52411;52.716;6.696;2023-01-09T11:43:29;7.20;99.90
65692;DHT22;52411;52.716;6.696;2023-01-09T11:45:58;7.30;99.90
65692;DHT22;52411;52.716;6.696;2023-01-09T11:48:31;7.30;99.90
65692;DHT22;52411;52.716;6.696;2023-01-09T11:50:59;7.40;99.90
65692;DHT22;52411;52.716;6.696;2023-01-09T11:53:25;7.40;99.90
65692;DHT22;52411;52.716;6.696;2023-01-09T11:55:59;7.50;99.90
65692;DHT22;52411;52.716;6.696;2023-01-09T11:58:31;7.50;99.90
65692;DHT22;52411;52.716;6.696;2023-01-09T12:01:17;7.60;99.90
65692;DHT22;52411;52.716;6.696;2023-01-09T12:08:54;7.70;99.90
65692;DHT22;52411;52.716;6.696;2023-01-09T12:14:29;7.80;99.90
65692;DHT22;52411;52.716;6.696;2023-01-09T12:47:41;8.00;99.90
65692;DHT22;52411;52.716;6.696;2023-01-09T12:50:55;8.00;99.90
65692;DHT22;52411;52.716;6.696;2023-01-09T12:53:42;8.00;99.90
65692;DHT22;52411;52.716;6.696;2023-01-09T12:56:19;8.00;99.90
65692;DHT22;52411;52.716;6.696;2023-01-09T12:58:57;8.00;99.90
65692;DHT22;52411;52.716;6.696;2023-01-09T13:01:33;8.10;99.90
65692;DHT22;52411;52.716;6.696;2023-01-09T13:04:14;8.10;99.90
65692;DHT22;52411;52.716;6.696;2023-01-09T13:06:45;8.10;99.90
65692;DHT22;52411;52.716;6.696;2023-01-09T13:12:14;8.10;99.90
65692;DHT22;52411;52.716;6.696;2023-01-09T13:14:52;8.20;99.90
65692;DHT22;52411;52.716;6.696;2023-01-09T13:17:24;8.20;99.90
65692;DHT22;52411;52.716;6.696;2023-01-09T13:19:50;8.20;99.90
65692;DHT22;52411;52.716;6.696;2023-01-09T13:22:19;8.20;99.90
65692;DHT22;52411;52.716;6.696;2023-01-09T13:24:53;8.30;99.90
65692;DHT22;52411;52.716;6.696;2023-01-09T13:27:20;8.20;99.90
65692;DHT22;52411;52.716;6.696;2023-01-09T13:29:50;8.20;99.90
65692;DHT22;52411;52.716;6.696;2023-01-09T13:32:41;8.20;99.90
65692;DHT22;52411;52.716;6.696;2023-01-09T13:35:12;8.20;99.90
65692;DHT22;52411;52.716;6.696;2023-01-09T13:37:39;8.20;99.90
65692;DHT22;52411;52.716;6.696;2023-01-09T13:42:43;8.30;99.90
65692;DHT22;52411;52.716;6.696;2023-01-09T13:45:23;8.30;99.90
65692;DHT22;52411;52.716;6.696;2023-01-09T13:50:37;8.30;99.90
65692;DHT22;52411;52.716;6.696;2023-01-09T13:56:03;8.30;99.90
65692;DHT22;52411;52.716;6.696;2023-01-09T14:01:37;8.40;99.90
65692;DHT22;52411;52.716;6.696;2023-01-09T14:06:38;8.40;99.90
65692;DHT22;52411;52.716;6.696;2023-01-09T14:09:24;8.40;99.90
65692;DHT22;52411;52.716;6.696;2023-01-09T14:12:02;8.40;99.90
65692;DHT22;52411;52.716;6.696;2023-01-09T14:14:30;8.50;99.90
65692;DHT22;52411;52.716;6.696;2023-01-09T14:16:58;8.50;99.90
65692;DHT22;52411;52.716;6.696;2023-01-09T14:19:36;8.50;99.90
65692;DHT22;52411;52.716;6.696;2023-01-09T14:22:03;8.50;99.90
65692;DHT22;52411;52.716;6.696;2023-01-09T14:24:30;8.50;99.90
65692;DHT22;52411;52.716;6.696;2023-01-09T14:26:58;8.50;99.90
65692;DHT22;52411;52.716;6.696;2023-01-09T14:37:33;8.50;99.90
65692;DHT22;52411;52.716;6.696;2023-01-09T14:40:00;8.50;99.90
65692;DHT22;52411;52.716;6.696;2023-01-09T14:42:30;8.50;99.90
65692;DHT22;52411;52.716;6.696;2023-01-09T14:45:14;8.50;99.90
65692;DHT22;52411;52.716;6.696;2023-01-09T14:48:01;8.50;99.90
65692;DHT22;52411;52.716;6.696;2023-01-09T14:50:49;8.50;99.90
65692;DHT22;52411;52.716;6.696;2023-01-09T14:53:29;8.50;99.90
65692;DHT22;52411;52.716;6.696;2023-01-09T14:56:01;8.50;99.90
65692;DHT22;52411;52.716;6.696;2023-01-09T14:58:32;8.50;99.90
65692;DHT22;52411;52.716;6.696;2023-01-09T15:04:16;8.40;99.90
65692;DHT22;52411;52.716;6.696;2023-01-09T15:08:45;8.30;99.90
65692;DHT22;52411;52.716;6.696;2023-01-09T15:11:13;8.40;99.90
65692;DHT22;52411;52.716;6.696;2023-01-09T15:13:45;8.30;99.90
65692;DHT22;52411;52.716;6.696;2023-01-09T15:16:17;8.30;99.90
65692;DHT22;52411;52.716;6.696;2023-01-09T15:18:47;8.40;99.90
65692;DHT22;52411;52.716;6.696;2023-01-09T15:21:17;8.30;99.90
65692;DHT22;52411;52.716;6.696;2023-01-09T15:23:44;8.30;99.90
65692;DHT22;52411;52.716;6.696;2023-01-09T15:28:51;8.30;99.90
65692;DHT22;52411;52.716;6.696;2023-01-09T15:31:19;8.20;99.90
65692;DHT22;52411;52.716;6.696;2023-01-09T15:33:47;8.10;99.90
65692;DHT22;52411;52.716;6.696;2023-01-09T15:36:17;8.00;99.90
65692;DHT22;52411;52.716;6.696;2023-01-09T15:38:44;8.00;99.90
65692;DHT22;52411;52.716;6.696;2023-01-09T15:41:14;7.90;99.90
65692;DHT22;52411;52.716;6.696;2023-01-09T15:44:02;7.90;99.90
65692;DHT22;52411;52.716;6.696;2023-01-09T15:46:29;7.80;99.90
65692;DHT22;52411;52.716;6.696;2023-01-09T15:48:55;7.80;99.90
65692;DHT22;52411;52.716;6.696;2023-01-09T15:51:21;7.70;99.90
65692;DHT22;52411;52.716;6.696;2023-01-09T15:53:47;7.70;99.90
65692;DHT22;52411;52.716;6.696;2023-01-09T15:56:24;7.60;99.90
65692;DHT22;52411;52.716;6.696;2023-01-09T15:58:58;7.60;99.90
65692;DHT22;52411;52.716;6.696;2023-01-09T16:06:50;7.60;99.90
65692;DHT22;52411;52.716;6.696;2023-01-09T16:09:22;7.60;99.90
65692;DHT22;52411;52.716;6.696;2023-01-09T16:11:53;7.60;99.90
65692;DHT22;52411;52.716;6.696;2023-01-09T16:14:24;7.60;99.90
65692;DHT22;52411;52.716;6.696;2023-01-09T16:16:52;7.60;99.90
65692;DHT22;52411;52.716;6.696;2023-01-09T16:24:46;7.50;99.90
65692;DHT22;52411;52.716;6.696;2023-01-09T16:29:46;7.40;99.90
65692;DHT22;52411;52.716;6.696;2023-01-09T16:32:19;7.40;99.90
65692;DHT22;52411;52.716;6.696;2023-01-09T16:34:51;7.40;99.90
65692;DHT22;52411;52.716;6.696;2023-01-09T16:37:17;7.40;99.90
65692;DHT22;52411;52.716;6.696;2023-01-09T16:42:48;7.50;99.90
65692;DHT22;52411;52.716;6.696;2023-01-09T16:45:35;7.50;99.90
65692;DHT22;52411;52.716;6.696;2023-01-09T16:48:09;7.50;99.90
65692;DHT22;52411;52.716;6.696;2023-01-09T16:50:35;7.50;99.90
65692;DHT22;52411;52.716;6.696;2023-01-09T16:53:11;7.50;99.90
65692;DHT22;52411;52.716;6.696;2023-01-09T16:55:37;7.40;99.90
65692;DHT22;52411;52.716;6.696;2023-01-09T16:58:03;7.40;99.90
65692;DHT22;52411;52.716;6.696;2023-01-09T17:00:28;7.40;99.90
65692;DHT22;52411;52.716;6.696;2023-01-09T17:02:54;7.40;99.90
65692;DHT22;52411;52.716;6.696;2023-01-09T17:05:21;7.30;99.90
65692;DHT22;52411;52.716;6.696;2023-01-09T17:07:47;7.30;99.90
65692;DHT22;52411;52.716;6.696;2023-01-09T17:10:20;7.30;99.90
65692;DHT22;52411;52.716;6.696;2023-01-09T17:12:46;7.30;99.90
65692;DHT22;52411;52.716;6.696;2023-01-09T17:15:11;7.20;99.90
65692;DHT22;52411;52.716;6.696;2023-01-09T17:17:37;7.20;99.90
65692;DHT22;52411;52.716;6.696;2023-01-09T17:20:08;7.20;99.90
65692;DHT22;52411;52.716;6.696;2023-01-09T17:22:35;7.10;99.90
65692;DHT22;52411;52.716;6.696;2023-01-09T17:25:01;7.00;99.90
65692;DHT22;52411;52.716;6.696;2023-01-09T17:27:45;7.00;99.90
65692;DHT22;52411;52.716;6.696;2023-01-09T17:30:30;7.00;99.90
65692;DHT22;52411;52.716;6.696;2023-01-09T17:32:55;6.90;99.90
65692;DHT22;52411;52.716;6.696;2023-01-09T17:35:21;6.80;99.90
65692;DHT22;52411;52.716;6.696;2023-01-09T17:37:46;6.80;99.90
65692;DHT22;52411;52.716;6.696;2023-01-09T17:40:22;6.70;99.90
65692;DHT22;52411;52.716;6.696;2023-01-09T17:42:47;6.60;99.90
65692;DHT22;52411;52.716;6.696;2023-01-09T17:45:13;6.50;99.90
65692;DHT22;52411;52.716;6.696;2023-01-09T17:47:39;6.50;99.90
65692;DHT22;52411;52.716;6.696;2023-01-09T17:50:05;6.40;99.90
65692;DHT22;52411;52.716;6.696;2023-01-09T17:52:31;6.30;99.90
65692;DHT22;52411;52.716;6.696;2023-01-09T17:54:57;6.20;99.90
65692;DHT22;52411;52.716;6.696;2023-01-09T17:57:32;6.20;99.90
65692;DHT22;52411;52.716;6.696;2023-01-09T17:59:58;6.20;99.90
65692;DHT22;52411;52.716;6.696;2023-01-09T18:02:23;6.20;99.90
65692;DHT22;52411;52.716;6.696;2023-01-09T18:04:49;6.10;99.90
65692;DHT22;52411;52.716;6.696;2023-01-09T18:07:15;6.10;99.90
65692;DHT22;52411;52.716;6.696;2023-01-09T18:09:42;6.10;99.90
65692;DHT22;52411;52.716;6.696;2023-01-09T18:12:08;6.00;99.90
65692;DHT22;52411;52.716;6.696;2023-01-09T18:14:35;6.00;99.90
65692;DHT22;52411;52.716;6.696;2023-01-09T18:17:03;5.90;99.90
65692;DHT22;52411;52.716;6.696;2023-01-09T18:19:30;5.90;99.90
65692;DHT22;52411;52.716;6.696;2023-01-09T18:21:55;5.90;99.90
65692;DHT22;52411;52.716;6.696;2023-01-09T18:24:23;5.90;99.90
65692;DHT22;52411;52.716;6.696;2023-01-09T18:26:49;5.90;99.90
65692;DHT22;52411;52.716;6.696;2023-01-09T18:29:15;5.90;99.90
65692;DHT22;52411;52.716;6.696;2023-01-09T18:31:40;5.80;99.90
65692;DHT22;52411;52.716;6.696;2023-01-09T18:34:08;5.80;99.90
65692;DHT22;52411;52.716;6.696;2023-01-09T18:36:34;5.70;99.90